Arcadia, Kansas
Current Conditions -  °F | °C
As of 6:15 PM on Monday 24 Nov 2014 (Local Time) from KPTS Reporting Station
Clear Clear  
Wind Chill: 42°   Ceiling: Unl
Heat Index: 42°   Visibility: 10mi
Dew Point: 26°   Wind: 3mph
Humidity: 54%   Direction: 310°NW
Pressure: 29.98"   Gusts: NA
Location:  37.64°N, 94.62°W
Report Text: KPTS 250015Z AUTO 31003KT 10SM CLR 05/M03 A2998 RMK AO2 T00541033
Loading
Personal Weather Stations






























Interactive Weather Map New forecast layout! Learn more

10-Day Weather Forecast

Advertisements
Track Severe Weather on mobile